createdAt,value
2022-08-05T00:01:28.966Z,2.53
2022-08-05T00:03:56.894Z,2.42
2022-08-05T00:06:32.462Z,2.70
2022-08-05T00:09:00.959Z,2.88
2022-08-05T00:11:34.901Z,2.40
2022-08-05T00:14:17.188Z,2.78
2022-08-05T00:16:53.240Z,2.60
2022-08-05T00:19:22.319Z,2.80
2022-08-05T00:21:49.767Z,2.55
2022-08-05T00:24:19.359Z,2.53
2022-08-05T00:26:52.205Z,2.67
2022-08-05T00:29:22.554Z,2.60
2022-08-05T00:31:54.420Z,2.92
2022-08-05T00:34:56.203Z,2.60
2022-08-05T00:37:22.957Z,2.65
2022-08-05T00:39:57.815Z,2.92
2022-08-05T00:42:36.779Z,3.28
2022-08-05T00:45:08.525Z,3.40
2022-08-05T00:47:56.461Z,3.75
2022-08-05T00:50:25.497Z,3.70
2022-08-05T00:52:53.317Z,3.80
2022-08-05T00:55:21.723Z,3.83
2022-08-05T00:57:58.411Z,4.05
2022-08-05T01:00:27.704Z,3.80
2022-08-05T01:02:55.037Z,4.10
2022-08-05T01:05:21.935Z,4.00
2022-08-05T01:08:39.976Z,3.85
2022-08-05T01:10:59.478Z,3.78
2022-08-05T01:13:59.062Z,3.60
2022-08-05T01:16:45.805Z,4.22
2022-08-05T01:19:56.621Z,3.75
2022-08-05T01:22:28.012Z,3.63
2022-08-05T01:25:04.616Z,3.40
2022-08-05T01:27:55.464Z,3.30
2022-08-05T01:30:34.894Z,3.58
2022-08-05T01:33:08.093Z,3.30
2022-08-05T01:35:51.898Z,3.40
2022-08-05T01:38:27.357Z,3.20
2022-08-05T01:41:01.294Z,2.95
2022-08-05T01:43:29.576Z,3.22
2022-08-05T01:45:57.592Z,3.40
2022-08-05T01:48:27.075Z,3.25
2022-08-05T01:50:55.952Z,3.05
2022-08-05T01:53:57.791Z,3.10
2022-08-05T01:56:13.318Z,3.20
2022-08-05T01:59:02.395Z,3.40
2022-08-05T02:01:39.824Z,3.33
2022-08-05T02:04:09.198Z,3.15
2022-08-05T02:06:38.986Z,3.38
2022-08-05T02:09:06.755Z,3.22
2022-08-05T02:11:47.863Z,3.03
2022-08-05T02:14:28.545Z,3.25
2022-08-05T02:17:02.871Z,3.45
2022-08-05T02:19:48.073Z,3.38
2022-08-05T02:22:26.721Z,3.30
2022-08-05T02:25:01.731Z,3.03
2022-08-05T02:27:58.866Z,3.10
2022-08-05T02:30:17.744Z,3.40
2022-08-05T02:32:49.126Z,2.88
2022-08-05T02:35:27.798Z,2.70
2022-08-05T02:38:02.298Z,3.00
2022-08-05T02:40:30.363Z,3.03
2022-08-05T02:42:58.871Z,2.88
2022-08-05T02:45:28.396Z,2.88
2022-08-05T02:48:11.571Z,3.05
2022-08-05T02:50:45.920Z,2.95
2022-08-05T02:53:18.907Z,3.17
2022-08-05T02:55:59.490Z,3.53
2022-08-05T02:58:28.869Z,3.67
2022-08-05T03:01:00.769Z,3.25
2022-08-05T03:03:33.751Z,3.58
2022-08-05T03:06:54.727Z,3.53
2022-08-05T03:08:53.025Z,3.22
2022-08-05T03:11:55.639Z,3.30
2022-08-05T03:14:13.513Z,3.75
2022-08-05T03:16:40.564Z,4.05
2022-08-05T03:19:16.902Z,4.40
2022-08-05T03:21:53.737Z,3.85
2022-08-05T03:24:30.200Z,3.47
2022-08-05T03:26:58.837Z,3.78
2022-08-05T03:29:45.325Z,4.28
2022-08-05T03:32:12.835Z,4.28
2022-08-05T03:34:42.447Z,4.72
2022-08-05T03:37:18.718Z,4.43
2022-08-05T03:40:01.912Z,4.00
2022-08-05T03:42:32.281Z,4.10
2022-08-05T03:45:01.572Z,4.25
2022-08-05T03:47:47.432Z,3.80
2022-08-05T03:50:16.057Z,3.92
2022-08-05T03:55:34.376Z,4.05
2022-08-05T03:56:27.873Z,4.43
2022-08-05T03:59:07.442Z,4.82
2022-08-05T04:01:39.473Z,4.90
2022-08-05T04:04:10.118Z,5.03
2022-08-05T04:06:37.892Z,3.80
2022-08-05T04:09:08.129Z,3.90
2022-08-05T04:11:47.539Z,4.07
2022-08-05T04:14:19.209Z,4.38
2022-08-05T04:16:56.347Z,4.18
2022-08-05T04:19:23.403Z,3.85
2022-08-05T04:22:08.319Z,4.30
2022-08-05T04:24:44.512Z,5.20
2022-08-05T04:27:13.169Z,4.88
2022-08-05T04:29:41.314Z,4.57
2022-08-05T04:32:09.062Z,4.60
2022-08-05T04:34:42.644Z,4.70
2022-08-05T04:37:10.107Z,5.50
2022-08-05T04:39:37.721Z,5.15
2022-08-05T04:42:06.143Z,4.43
2022-08-05T04:44:33.105Z,5.53
2022-08-05T04:47:00.219Z,4.93
2022-08-05T04:49:39.053Z,5.32
2022-08-05T04:52:23.669Z,5.05
2022-08-05T04:54:54.420Z,5.03
2022-08-05T04:57:28.400Z,5.80
2022-08-05T04:59:55.432Z,5.70
2022-08-05T05:02:37.169Z,5.45
2022-08-05T05:05:26.553Z,5.57
2022-08-05T05:08:14.382Z,5.65
2022-08-05T05:10:56.693Z,5.75
2022-08-05T05:13:23.414Z,6.40
2022-08-05T05:15:56.211Z,5.50
2022-08-05T05:18:33.090Z,6.05
2022-08-05T05:21:00.990Z,6.50
2022-08-05T05:23:38.852Z,6.32
2022-08-05T05:26:14.333Z,6.60
2022-08-05T05:28:42.890Z,6.03
2022-08-05T05:31:11.925Z,5.95
2022-08-05T05:33:59.354Z,6.75
2022-08-05T05:36:25.190Z,7.75
2022-08-05T05:38:56.953Z,7.07
2022-08-05T05:41:23.709Z,6.60
2022-08-05T05:43:58.001Z,6.40
2022-08-05T05:46:27.036Z,7.18
2022-08-05T05:48:53.683Z,7.47
2022-08-05T05:51:22.049Z,7.07
2022-08-05T05:53:57.464Z,7.53
2022-08-05T05:56:32.563Z,7.82
2022-08-05T05:59:03.226Z,7.28
2022-08-05T06:01:37.447Z,7.32
2022-08-05T06:04:14.287Z,7.30
2022-08-05T06:06:43.315Z,6.50
2022-08-05T06:09:17.621Z,7.90
2022-08-05T06:11:59.082Z,7.70
2022-08-05T06:14:28.016Z,7.95
2022-08-05T06:16:55.643Z,7.78
2022-08-05T06:19:26.122Z,7.65
2022-08-05T06:22:06.313Z,7.25
2022-08-05T06:24:35.344Z,8.02
2022-08-05T06:27:04.156Z,9.27
2022-08-05T06:29:51.958Z,8.63
2022-08-05T06:32:24.958Z,8.38
2022-08-05T06:34:56.292Z,8.38
2022-08-05T06:37:56.082Z,8.13
2022-08-05T06:40:10.357Z,6.82
2022-08-05T06:42:37.349Z,8.10
2022-08-05T06:45:08.645Z,7.18
2022-08-05T06:48:37.106Z,7.78
2022-08-05T06:50:22.857Z,7.35
2022-08-05T06:53:04.008Z,6.93
2022-08-05T06:55:37.055Z,7.38
2022-08-05T06:58:29.682Z,5.95
2022-08-05T07:00:51.287Z,6.55
2022-08-05T07:03:18.437Z,7.20
2022-08-05T07:05:46.364Z,6.72
2022-08-05T07:08:13.325Z,6.63
2022-08-05T07:10:53.306Z,7.50
2022-08-05T07:13:57.667Z,6.57
2022-08-05T07:17:59.044Z,6.55
2022-08-05T07:20:22.939Z,6.63
2022-08-05T07:22:17.643Z,7.00
2022-08-05T07:24:53.558Z,6.60
2022-08-05T07:27:21.595Z,6.03
2022-08-05T07:30:30.093Z,6.53
2022-08-05T07:32:38.847Z,6.35
2022-08-05T07:36:02.889Z,6.03
2022-08-05T07:37:59.484Z,5.90
2022-08-05T07:40:31.836Z,6.10
2022-08-05T07:42:59.699Z,7.18
2022-08-05T07:45:58.139Z,7.05
2022-08-05T07:49:00.903Z,6.80
2022-08-05T07:51:23.007Z,6.55
2022-08-05T07:53:51.601Z,6.00
2022-08-05T07:56:39.240Z,7.53
2022-08-05T07:59:08.493Z,7.05
2022-08-05T08:01:35.498Z,7.32
2022-08-05T08:04:22.988Z,6.15
2022-08-05T08:07:08.306Z,7.10
2022-08-05T08:09:35.530Z,7.32
2022-08-05T08:12:11.466Z,7.07
2022-08-05T08:14:47.112Z,7.45
2022-08-05T08:17:15.988Z,6.82
2022-08-05T08:20:43.037Z,5.55
2022-08-05T08:22:32.618Z,5.95
2022-08-05T08:25:02.923Z,5.75
2022-08-05T08:27:40.291Z,5.65
2022-08-05T08:30:29.840Z,5.15
2022-08-05T08:33:04.345Z,4.80
2022-08-05T08:35:35.047Z,4.57
2022-08-05T08:38:08.351Z,5.00
2022-08-05T08:40:39.736Z,4.55
2022-08-05T08:45:16.160Z,4.38
2022-08-05T08:45:54.586Z,4.30
2022-08-05T08:48:37.602Z,4.03
2022-08-05T08:52:02.899Z,4.07
2022-08-05T08:53:55.931Z,4.13
2022-08-05T08:56:23.525Z,4.07
2022-08-05T08:58:54.191Z,3.90
2022-08-05T09:01:20.993Z,3.78
2022-08-05T09:03:57.403Z,3.72
2022-08-05T09:06:29.463Z,3.65
2022-08-05T09:08:58.406Z,3.80
2022-08-05T09:11:52.686Z,3.47
2022-08-05T09:14:56.768Z,3.38
2022-08-05T09:17:05.096Z,3.80
2022-08-05T09:19:36.577Z,3.67
2022-08-05T09:22:31.020Z,3.40
2022-08-05T09:25:13.862Z,3.50
2022-08-05T09:28:05.293Z,2.90
2022-08-05T09:30:34.199Z,3.10
2022-08-05T09:33:04.736Z,3.17
2022-08-05T09:35:31.869Z,2.95
2022-08-05T09:38:12.237Z,3.33
2022-08-05T09:40:52.122Z,3.10
2022-08-05T09:43:40.473Z,2.75
2022-08-05T09:46:28.171Z,2.95
2022-08-05T09:49:07.192Z,2.95
2022-08-05T09:51:45.133Z,3.00
2022-08-05T09:54:21.203Z,3.05
2022-08-05T09:56:56.070Z,4.22
2022-08-05T09:59:27.632Z,3.60
2022-08-05T10:01:57.783Z,3.20
2022-08-05T10:04:36.253Z,3.15
2022-08-05T10:07:19.736Z,3.38
2022-08-05T10:10:04.227Z,3.03
2022-08-05T10:12:49.635Z,3.10
2022-08-05T10:15:20.137Z,3.38
2022-08-05T10:18:19.653Z,3.38
2022-08-05T10:20:50.369Z,3.50
2022-08-05T10:23:34.643Z,3.55
2022-08-05T10:26:13.962Z,3.30
2022-08-05T10:28:44.887Z,3.80
2022-08-05T10:32:54.907Z,3.50
2022-08-05T10:34:00.349Z,3.38
2022-08-05T10:36:27.519Z,3.22
2022-08-05T10:39:10.116Z,3.75
2022-08-05T10:42:03.810Z,3.10
2022-08-05T10:44:32.634Z,3.65
2022-08-05T10:47:10.261Z,3.53
2022-08-05T10:50:32.669Z,3.55
2022-08-05T10:52:59.796Z,3.22
2022-08-05T10:55:27.183Z,3.17
2022-08-05T10:58:11.467Z,3.30
2022-08-05T11:00:42.023Z,3.10
2022-08-05T11:03:25.563Z,3.20
2022-08-05T11:06:08.379Z,3.45
2022-08-05T11:09:17.329Z,3.40
2022-08-05T11:11:53.172Z,3.10
2022-08-05T11:14:57.446Z,3.10
2022-08-05T11:17:57.209Z,3.17
2022-08-05T11:20:43.637Z,2.85
2022-08-05T11:24:02.316Z,3.13
2022-08-05T11:26:32.250Z,3.00
2022-08-05T11:29:11.778Z,2.83
2022-08-05T11:31:58.022Z,3.05
2022-08-05T11:34:39.750Z,3.15
2022-08-05T11:38:30.406Z,3.03
2022-08-05T11:40:00.211Z,3.30
2022-08-05T11:42:40.290Z,3.20
2022-08-05T11:45:14.559Z,2.95
2022-08-05T11:47:55.150Z,3.10
2022-08-05T11:50:22.639Z,2.85
2022-08-05T11:52:52.038Z,2.53
2022-08-05T11:55:21.154Z,3.10
2022-08-05T11:58:10.720Z,3.20
2022-08-05T12:00:38.414Z,3.53
2022-08-05T12:03:29.328Z,2.67
2022-08-05T12:06:00.736Z,3.60
2022-08-05T12:08:27.752Z,2.80
2022-08-05T12:11:00.148Z,2.97
2022-08-05T12:13:48.454Z,2.63
2022-08-05T12:16:19.163Z,3.13
2022-08-05T12:18:48.946Z,2.90
2022-08-05T12:21:23.940Z,3.40
2022-08-05T12:24:08.737Z,3.05
2022-08-05T12:26:44.242Z,3.80
2022-08-05T12:29:25.435Z,3.15
2022-08-05T12:31:57.342Z,3.28
2022-08-05T12:34:28.782Z,3.42
2022-08-05T12:37:07.335Z,3.00
2022-08-05T12:39:38.500Z,3.45
2022-08-05T12:42:16.511Z,3.15
2022-08-05T12:44:44.880Z,3.33
2022-08-05T12:47:17.251Z,3.30
2022-08-05T12:50:02.431Z,3.65
2022-08-05T12:52:39.332Z,4.20
2022-08-05T12:55:32.901Z,4.35
2022-08-05T12:58:49.830Z,4.40
2022-08-05T13:02:03.205Z,4.70
2022-08-05T13:03:42.371Z,4.80
2022-08-05T13:08:51.964Z,5.50
2022-08-05T13:12:01.599Z,5.78
2022-08-05T13:14:20.385Z,5.78
2022-08-05T13:16:58.813Z,5.75
2022-08-05T13:19:27.546Z,5.82
2022-08-05T13:22:14.188Z,5.95
2022-08-05T13:24:57.885Z,5.55
2022-08-05T13:27:37.638Z,6.10
2022-08-05T13:30:34.220Z,6.03
2022-08-05T13:32:56.511Z,6.00
2022-08-05T13:35:42.522Z,6.00
2022-08-05T13:38:14.498Z,5.35
2022-08-05T13:40:51.560Z,5.57
2022-08-05T13:43:21.747Z,5.55
2022-08-05T13:45:49.259Z,5.28
2022-08-05T13:48:57.308Z,5.05
2022-08-05T13:51:10.729Z,5.35
2022-08-05T13:53:48.232Z,4.90
2022-08-05T13:56:18.977Z,5.10
2022-08-05T13:58:53.009Z,5.10
2022-08-05T14:01:25.882Z,5.07
2022-08-05T14:04:21.973Z,4.60
2022-08-05T14:06:58.857Z,5.15
2022-08-05T14:09:46.079Z,4.30
2022-08-05T14:12:17.992Z,4.72
2022-08-05T14:14:58.871Z,4.30
2022-08-05T14:17:26.579Z,4.82
2022-08-05T14:20:00.961Z,4.72
2022-08-05T14:22:34.256Z,5.30
2022-08-05T14:25:06.394Z,5.53
2022-08-05T14:27:49.371Z,6.25
2022-08-05T14:30:20.346Z,5.95
2022-08-05T14:32:48.853Z,5.97
2022-08-05T14:35:16.180Z,6.80
2022-08-05T14:37:52.170Z,6.53
2022-08-05T14:40:24.442Z,7.10
2022-08-05T14:42:51.951Z,6.93
2022-08-05T14:45:18.850Z,7.82
2022-08-05T14:48:04.941Z,8.68
2022-08-05T14:50:39.706Z,8.32
2022-08-05T14:53:07.465Z,8.10
2022-08-05T14:55:39.539Z,8.80
2022-08-05T14:58:10.872Z,9.75
2022-08-05T15:00:58.548Z,9.77
2022-08-05T15:03:33.857Z,9.93
2022-08-05T15:06:07.960Z,11.10
2022-08-05T15:08:59.170Z,10.85
2022-08-05T15:11:51.956Z,10.68
2022-08-05T15:14:33.323Z,11.63
2022-08-05T15:17:03.783Z,11.05
2022-08-05T15:19:30.801Z,10.57
2022-08-05T15:22:00.318Z,11.02
2022-08-05T15:24:28.270Z,11.82
2022-08-05T15:26:55.985Z,11.10
2022-08-05T15:29:23.883Z,11.60
2022-08-05T15:31:57.446Z,10.73
2022-08-05T15:34:32.356Z,11.40
2022-08-05T15:37:06.446Z,11.30
2022-08-05T15:41:00.151Z,11.57
2022-08-05T15:42:55.103Z,10.32
2022-08-05T15:45:14.634Z,8.77
2022-08-05T15:47:42.668Z,8.52
2022-08-05T15:50:15.117Z,6.85
2022-08-05T15:52:53.391Z,6.10
2022-08-05T15:55:25.039Z,5.65
2022-08-05T15:58:09.373Z,5.28
2022-08-05T16:00:50.830Z,5.10
2022-08-05T16:03:29.936Z,5.13
2022-08-05T16:05:59.334Z,5.13
2022-08-05T16:08:30.410Z,5.20
2022-08-05T16:10:58.110Z,5.13
2022-08-05T16:13:31.888Z,4.70
2022-08-05T16:16:01.241Z,4.78
2022-08-05T16:18:30.310Z,5.05
2022-08-05T16:20:58.463Z,4.72
2022-08-05T16:23:25.431Z,4.93
2022-08-05T16:26:09.622Z,4.80
2022-08-05T16:28:38.353Z,4.73
2022-08-05T16:31:08.082Z,4.68
2022-08-05T16:33:41.295Z,4.50
2022-08-05T16:36:08.518Z,4.20
2022-08-05T16:38:35.596Z,3.20
2022-08-05T16:41:29.564Z,2.92
2022-08-05T16:43:49.595Z,2.75
2022-08-05T16:46:24.276Z,2.47
2022-08-05T16:48:51.535Z,3.03
2022-08-05T16:51:19.290Z,2.92
2022-08-05T16:54:02.580Z,2.65
2022-08-05T16:56:33.941Z,2.40
2022-08-05T16:59:08.347Z,2.30
2022-08-05T17:01:53.192Z,2.00
2022-08-05T17:04:21.080Z,1.85
2022-08-05T17:06:53.408Z,1.95
2022-08-05T17:09:20.666Z,1.67
2022-08-05T17:11:50.853Z,1.63
2022-08-05T17:14:22.324Z,1.80
2022-08-05T17:17:01.630Z,1.80
2022-08-05T17:19:29.297Z,1.70
2022-08-05T17:21:57.305Z,1.85
2022-08-05T17:24:35.042Z,1.65
2022-08-05T17:27:07.279Z,1.63
2022-08-05T17:29:40.946Z,1.50
2022-08-05T17:32:16.800Z,1.53
2022-08-05T17:34:47.775Z,1.33
2022-08-05T17:37:40.443Z,1.50
2022-08-05T17:40:10.810Z,1.25
2022-08-05T17:42:43.146Z,1.35
2022-08-05T17:45:21.103Z,1.20
2022-08-05T17:47:54.003Z,1.10
2022-08-05T17:50:29.632Z,1.30
2022-08-05T17:52:59.399Z,1.30
2022-08-05T17:55:34.403Z,1.27
2022-08-05T17:58:05.933Z,1.30
2022-08-05T18:00:34.447Z,1.17
2022-08-05T18:03:02.239Z,1.30
2022-08-05T18:05:35.429Z,1.10
2022-08-05T18:08:02.913Z,1.10
2022-08-05T18:10:32.056Z,1.20
2022-08-05T18:13:00.603Z,1.00
2022-08-05T18:15:31.190Z,1.10
2022-08-05T18:18:05.683Z,1.08
2022-08-05T18:20:38.107Z,1.08
2022-08-05T18:23:11.356Z,1.05
2022-08-05T18:25:45.071Z,1.20
2022-08-05T18:28:16.375Z,1.08
2022-08-05T18:30:51.340Z,1.08
2022-08-05T18:33:22.734Z,1.00
2022-08-05T18:36:04.256Z,1.27
2022-08-05T18:38:36.038Z,1.15
2022-08-05T18:41:56.291Z,1.27
2022-08-05T18:43:54.229Z,1.30
2022-08-05T18:46:21.584Z,1.15
2022-08-05T18:48:53.526Z,1.10
2022-08-05T18:52:04.883Z,1.00
2022-08-05T18:54:35.372Z,1.00
2022-08-05T18:57:03.093Z,1.00
2022-08-05T18:59:43.441Z,0.98
2022-08-05T19:02:36.514Z,1.25
2022-08-05T19:06:05.332Z,1.20
2022-08-05T19:07:56.122Z,1.40
2022-08-05T19:10:27.976Z,1.20
2022-08-05T19:12:59.073Z,1.42
2022-08-05T19:15:58.977Z,1.10
2022-08-05T19:18:22.266Z,1.33
2022-08-05T19:20:52.226Z,1.25
2022-08-05T19:24:03.291Z,1.27
2022-08-05T19:26:09.159Z,1.23
2022-08-05T19:28:42.176Z,1.00
2022-08-05T19:31:13.255Z,1.00
2022-08-05T19:33:48.198Z,1.05
2022-08-05T19:36:23.277Z,1.17
2022-08-05T19:38:49.997Z,1.30
2022-08-05T19:41:16.680Z,1.10
2022-08-05T19:44:05.699Z,0.90
2022-08-05T19:49:07.732Z,1.30
2022-08-05T19:52:09.395Z,1.23
2022-08-05T19:54:31.441Z,1.25
2022-08-05T19:56:59.690Z,1.27
2022-08-05T19:59:54.000Z,1.30
2022-08-05T20:02:17.414Z,1.17
2022-08-05T20:04:46.210Z,1.50
2022-08-05T20:07:15.370Z,1.10
2022-08-05T20:09:54.750Z,1.35
2022-08-05T20:12:24.786Z,1.30
2022-08-05T20:14:53.031Z,1.35
2022-08-05T20:17:23.224Z,1.30
2022-08-05T20:19:50.838Z,1.50
2022-08-05T20:22:24.018Z,1.80
2022-08-05T20:24:53.270Z,1.77
2022-08-05T20:27:21.008Z,1.50
2022-08-05T20:29:58.499Z,1.48
2022-08-05T20:32:27.399Z,1.58
2022-08-05T20:34:54.849Z,1.40
2022-08-05T20:38:04.975Z,1.30
2022-08-05T20:40:09.222Z,1.20
2022-08-05T20:42:36.074Z,1.30
2022-08-05T20:45:04.541Z,1.30
2022-08-05T20:47:32.745Z,1.35
2022-08-05T20:50:02.304Z,1.20
2022-08-05T20:52:29.797Z,1.50
2022-08-05T20:55:55.654Z,1.30
2022-08-05T20:57:44.854Z,1.40
2022-08-05T21:00:40.868Z,1.20
2022-08-05T21:03:04.585Z,1.50
2022-08-05T21:05:47.677Z,1.30
2022-08-05T21:08:35.870Z,1.30
2022-08-05T21:11:12.402Z,1.40
2022-08-05T21:13:47.989Z,1.40
2022-08-05T21:16:29.163Z,1.30
2022-08-05T21:19:01.390Z,1.42
2022-08-05T21:21:39.240Z,1.38
2022-08-05T21:24:12.963Z,1.50
2022-08-05T21:26:40.167Z,1.42
2022-08-05T21:29:10.088Z,1.50
2022-08-05T21:34:10.544Z,1.50
2022-08-05T21:36:38.038Z,1.50
2022-08-05T21:39:04.908Z,1.42
2022-08-05T21:41:34.251Z,1.52
2022-08-05T21:44:04.071Z,1.33
2022-08-05T21:46:34.933Z,1.73
2022-08-05T21:49:07.299Z,1.67
2022-08-05T21:52:21.813Z,1.45
2022-08-05T21:54:28.162Z,2.00
2022-08-05T21:57:28.335Z,1.73
2022-08-05T22:00:02.116Z,1.80
2022-08-05T22:02:30.703Z,1.42
2022-08-05T22:04:58.613Z,1.40
2022-08-05T22:07:40.186Z,1.42
2022-08-05T22:10:13.668Z,1.40
2022-08-05T22:12:44.732Z,1.38
2022-08-05T22:16:00.639Z,1.27
2022-08-05T22:18:04.046Z,1.38
2022-08-05T22:20:30.701Z,1.70
2022-08-05T22:23:21.330Z,1.48
2022-08-05T22:26:10.984Z,1.70
2022-08-05T22:28:38.676Z,1.77
2022-08-05T22:31:06.044Z,1.58
2022-08-05T22:33:58.571Z,1.50
2022-08-05T22:36:23.870Z,2.00
2022-08-05T22:38:51.145Z,1.60
2022-08-05T22:41:26.307Z,1.70
2022-08-05T22:44:07.854Z,1.73
2022-08-05T22:46:39.987Z,2.17
2022-08-05T22:49:12.151Z,2.00
2022-08-05T22:52:07.133Z,1.50
2022-08-05T22:54:37.600Z,1.77
2022-08-05T22:57:06.420Z,1.75
2022-08-05T22:59:44.086Z,1.67
2022-08-05T23:02:29.003Z,1.80
2022-08-05T23:04:57.088Z,1.70
2022-08-05T23:07:23.680Z,1.90
2022-08-05T23:10:01.584Z,1.75
2022-08-05T23:12:32.825Z,1.50
2022-08-05T23:15:04.008Z,1.92
2022-08-05T23:17:59.700Z,1.52
2022-08-05T23:20:24.420Z,1.70
2022-08-05T23:22:55.799Z,1.70
2022-08-05T23:25:52.859Z,1.60
2022-08-05T23:28:10.801Z,1.88
2022-08-05T23:30:40.239Z,1.65
2022-08-05T23:33:21.894Z,1.50
2022-08-05T23:35:48.829Z,1.45
2022-08-05T23:38:16.151Z,1.63
2022-08-05T23:40:49.404Z,1.50
2022-08-05T23:43:24.811Z,1.50
2022-08-05T23:46:03.643Z,1.33
2022-08-05T23:48:30.250Z,1.30
2022-08-05T23:50:56.862Z,1.40
2022-08-05T23:53:28.577Z,1.27
2022-08-05T23:56:12.154Z,1.30
2022-08-05T23:58:38.869Z,1.20
